createdAt,value
2019-03-26T00:02:32.383Z,21.10
2019-03-26T00:05:18.997Z,21.10
2019-03-26T00:08:06.144Z,21.10
2019-03-26T00:10:53.395Z,21.10
2019-03-26T00:13:40.569Z,21.10
2019-03-26T00:16:27.180Z,21.10
2019-03-26T00:19:13.632Z,21.10
2019-03-26T00:22:16.603Z,21.10
2019-03-26T00:25:03.566Z,21.10
2019-03-26T00:27:50.724Z,21.10
2019-03-26T00:31:05.084Z,21.10
2019-03-26T00:33:49.450Z,21.00
2019-03-26T00:36:36.376Z,21.00
2019-03-26T00:39:23.356Z,21.00
2019-03-26T00:42:11.254Z,21.00
2019-03-26T00:44:58.188Z,21.00
2019-03-26T00:47:45.331Z,21.00
2019-03-26T00:50:32.374Z,21.00
2019-03-26T00:53:19.158Z,21.00
2019-03-26T00:56:05.679Z,21.00
2019-03-26T00:58:52.131Z,21.00
2019-03-26T01:01:39.063Z,21.00
2019-03-26T01:04:32.808Z,21.00
2019-03-26T01:07:14.538Z,21.00
2019-03-26T01:10:01.684Z,21.00
2019-03-26T01:12:49.167Z,21.00
2019-03-26T01:15:36.205Z,21.00
2019-03-26T01:18:23.245Z,21.00
2019-03-26T01:21:10.044Z,21.00
2019-03-26T01:23:57.196Z,21.00
2019-03-26T01:26:44.247Z,21.00
2019-03-26T01:29:31.098Z,21.00
2019-03-26T01:32:18.359Z,21.00
2019-03-26T01:35:05.370Z,21.00
2019-03-26T01:37:52.259Z,21.00
2019-03-26T01:40:38.979Z,21.00
2019-03-26T01:43:26.130Z,21.00
2019-03-26T01:46:12.875Z,21.00
2019-03-26T01:49:00.165Z,21.00
2019-03-26T01:51:46.723Z,21.00
2019-03-26T01:54:33.748Z,21.00
2019-03-26T01:57:20.583Z,21.00
2019-03-26T02:00:07.624Z,21.00
2019-03-26T02:02:56.251Z,21.00
2019-03-26T02:05:42.805Z,21.00
2019-03-26T02:08:30.013Z,21.00
2019-03-26T02:11:16.857Z,21.00
2019-03-26T02:14:03.980Z,21.00
2019-03-26T02:16:51.023Z,21.00
2019-03-26T02:19:37.939Z,21.00
2019-03-26T02:22:24.403Z,21.00
2019-03-26T02:25:12.387Z,21.00
2019-03-26T02:28:00.484Z,21.00
2019-03-26T02:30:47.788Z,21.00
2019-03-26T02:33:34.633Z,21.00
2019-03-26T02:36:21.756Z,21.00
2019-03-26T02:39:08.382Z,21.00
2019-03-26T02:41:55.505Z,21.00
2019-03-26T02:44:42.143Z,21.00
2019-03-26T02:47:29.250Z,21.00
2019-03-26T02:50:16.180Z,21.00
2019-03-26T02:53:02.615Z,21.00
2019-03-26T02:55:50.527Z,21.00
2019-03-26T02:58:37.685Z,21.00
2019-03-26T03:01:24.890Z,21.00
2019-03-26T03:04:11.968Z,21.00
2019-03-26T03:06:58.999Z,21.00
2019-03-26T03:09:45.806Z,21.00
2019-03-26T03:12:32.634Z,21.00
2019-03-26T03:15:19.829Z,21.00
2019-03-26T03:18:06.670Z,21.00
2019-03-26T03:20:53.769Z,21.00
2019-03-26T03:23:40.762Z,21.00
2019-03-26T03:26:27.670Z,21.00
2019-03-26T03:29:14.549Z,20.90
2019-03-26T03:32:01.930Z,20.90
2019-03-26T03:34:48.643Z,20.90
2019-03-26T03:37:35.859Z,20.90
2019-03-26T03:40:25.008Z,20.90
2019-03-26T03:43:12.008Z,20.90
2019-03-26T03:45:59.396Z,20.90
2019-03-26T03:48:47.000Z,20.90
2019-03-26T03:51:35.107Z,20.90
2019-03-26T03:54:22.499Z,20.90
2019-03-26T03:57:11.508Z,20.90
2019-03-26T03:59:59.803Z,20.90
2019-03-26T04:02:47.535Z,20.90
2019-03-26T04:05:35.340Z,20.90
2019-03-26T04:08:21.904Z,20.90
2019-03-26T04:11:08.828Z,20.90
2019-03-26T04:13:56.119Z,20.80
2019-03-26T04:16:43.317Z,20.80
2019-03-26T04:19:30.089Z,20.80
2019-03-26T04:22:17.251Z,20.80
2019-03-26T04:25:04.633Z,20.80
2019-03-26T04:27:51.895Z,20.80
2019-03-26T04:30:38.686Z,20.80
2019-03-26T04:33:25.862Z,20.80
2019-03-26T04:36:24.685Z,20.80
2019-03-26T04:39:01.403Z,20.80
2019-03-26T04:41:48.285Z,20.80
2019-03-26T04:44:35.632Z,20.80
2019-03-26T04:47:22.539Z,20.80
2019-03-26T04:50:09.880Z,20.80
2019-03-26T04:52:58.739Z,20.80
2019-03-26T04:55:46.619Z,20.80
2019-03-26T04:58:33.512Z,20.80
2019-03-26T05:01:21.111Z,20.80
2019-03-26T05:04:07.872Z,20.80
2019-03-26T05:06:54.651Z,20.80
2019-03-26T05:09:41.303Z,20.80
2019-03-26T05:12:28.372Z,20.80
2019-03-26T05:15:14.636Z,20.80
2019-03-26T05:18:01.851Z,20.80
2019-03-26T05:20:49.098Z,20.80
2019-03-26T05:23:36.239Z,20.80
2019-03-26T05:26:23.528Z,20.80
2019-03-26T05:29:12.620Z,20.80
2019-03-26T05:32:00.343Z,20.80
2019-03-26T05:34:47.783Z,20.80
2019-03-26T05:37:34.503Z,20.80
2019-03-26T05:40:21.559Z,20.80
2019-03-26T05:43:08.555Z,20.90
2019-03-26T05:45:56.567Z,20.90
2019-03-26T05:48:44.418Z,20.90
2019-03-26T05:51:31.675Z,20.90
2019-03-26T05:54:18.468Z,20.90
2019-03-26T05:57:05.474Z,20.90
2019-03-26T05:59:52.448Z,20.90
2019-03-26T06:02:39.504Z,20.90
2019-03-26T06:05:26.791Z,20.90
2019-03-26T06:08:18.872Z,20.90
2019-03-26T06:11:08.340Z,20.90
2019-03-26T06:13:55.335Z,20.90
2019-03-26T06:16:42.595Z,21.00
2019-03-26T06:19:29.686Z,21.10
2019-03-26T06:22:18.512Z,21.20
2019-03-26T06:25:05.453Z,21.30
2019-03-26T06:27:52.008Z,21.40
2019-03-26T06:30:39.052Z,21.60
2019-03-26T06:33:26.112Z,21.70
2019-03-26T06:36:13.322Z,21.80
2019-03-26T06:39:32.064Z,21.80
2019-03-26T06:42:07.794Z,21.90
2019-03-26T06:44:54.069Z,22.10
2019-03-26T06:47:38.118Z,22.20
2019-03-26T06:50:36.202Z,22.30
2019-03-26T06:53:34.902Z,22.50
2019-03-26T06:56:33.592Z,22.70
2019-03-26T07:00:00.365Z,22.80
2019-03-26T07:02:42.641Z,23.00
2019-03-26T07:05:26.741Z,23.10
2019-03-26T07:08:32.223Z,23.10
2019-03-26T07:11:39.636Z,23.10
2019-03-26T07:14:27.784Z,23.10
2019-03-26T07:17:08.648Z,23.00
2019-03-26T07:20:06.877Z,23.00
2019-03-26T07:23:08.507Z,23.00
2019-03-26T07:25:47.319Z,22.90
2019-03-26T07:28:32.746Z,22.90
2019-03-26T07:31:16.243Z,23.00
2019-03-26T07:34:14.413Z,23.00
2019-03-26T07:36:58.711Z,23.10
2019-03-26T07:39:28.023Z,23.20
2019-03-26T07:42:04.747Z,23.30
2019-03-26T07:44:45.406Z,23.40
2019-03-26T07:47:32.377Z,23.50
2019-03-26T07:50:19.491Z,23.60
2019-03-26T07:53:06.408Z,23.70
2019-03-26T07:55:53.290Z,23.80
2019-03-26T07:58:41.360Z,23.90
2019-03-26T08:01:50.871Z,24.10
2019-03-26T08:04:44.705Z,24.30
2019-03-26T08:07:57.801Z,24.40
2019-03-26T08:10:34.629Z,24.50
2019-03-26T08:13:24.465Z,24.60
2019-03-26T08:16:07.609Z,24.60
2019-03-26T08:18:50.302Z,24.40
2019-03-26T08:21:32.787Z,24.30
2019-03-26T08:24:45.471Z,24.20
2019-03-26T08:27:41.181Z,24.00
2019-03-26T08:30:50.286Z,24.00
2019-03-26T08:33:37.808Z,23.90
2019-03-26T08:36:29.666Z,24.10
2019-03-26T08:39:06.674Z,24.20
2019-03-26T08:41:50.184Z,24.40
2019-03-26T08:44:35.501Z,24.50
2019-03-26T08:47:22.427Z,24.70
2019-03-26T08:50:06.059Z,24.90
2019-03-26T08:52:43.873Z,25.10
2019-03-26T08:55:56.340Z,25.20
2019-03-26T08:59:05.051Z,25.20
2019-03-26T09:01:43.338Z,25.30
2019-03-26T09:04:44.979Z,25.40
2019-03-26T09:07:39.363Z,25.40
2019-03-26T09:10:33.551Z,25.50
2019-03-26T09:13:39.515Z,25.50
2019-03-26T09:16:23.004Z,25.60
2019-03-26T09:19:15.576Z,25.70
2019-03-26T09:21:51.890Z,25.80
2019-03-26T09:24:21.843Z,25.80
2019-03-26T09:27:31.401Z,25.80
2019-03-26T09:30:07.264Z,25.90
2019-03-26T09:33:10.574Z,25.90
2019-03-26T09:36:18.338Z,25.90
2019-03-26T09:38:56.118Z,26.00
2019-03-26T09:41:47.036Z,25.90
2019-03-26T09:44:30.845Z,25.90
2019-03-26T09:47:15.952Z,25.90
2019-03-26T09:49:41.851Z,25.90
2019-03-26T09:52:45.695Z,25.90
2019-03-26T09:55:38.897Z,25.90
2019-03-26T09:58:30.083Z,25.80
2019-03-26T10:01:19.293Z,25.80
2019-03-26T10:04:32.828Z,25.80
2019-03-26T10:07:21.578Z,25.80
2019-03-26T10:09:54.683Z,25.70
2019-03-26T10:12:28.257Z,25.70
2019-03-26T10:15:08.184Z,25.60
2019-03-26T10:17:59.808Z,25.60
2019-03-26T10:20:33.114Z,25.50
2019-03-26T10:23:01.880Z,25.50
2019-03-26T10:25:30.063Z,25.40
2019-03-26T10:27:58.062Z,25.30
2019-03-26T10:30:45.907Z,25.30
2019-03-26T10:33:32.771Z,25.20
2019-03-26T10:36:20.613Z,25.20
2019-03-26T10:39:07.878Z,25.10
2019-03-26T10:41:55.168Z,25.10
2019-03-26T10:44:41.987Z,25.00
2019-03-26T10:47:28.780Z,24.90
2019-03-26T10:50:15.620Z,24.90
2019-03-26T10:53:02.816Z,24.80
2019-03-26T10:55:49.450Z,24.80
2019-03-26T10:58:36.760Z,24.70
2019-03-26T11:01:23.871Z,24.70
2019-03-26T11:04:13.131Z,24.60
2019-03-26T11:07:00.159Z,24.60
2019-03-26T11:09:47.079Z,24.60
2019-03-26T11:12:33.885Z,24.50
2019-03-26T11:15:20.816Z,24.50
2019-03-26T11:18:07.898Z,24.40
2019-03-26T11:21:02.305Z,24.40
2019-03-26T11:23:43.511Z,24.40
2019-03-26T11:26:29.994Z,24.40
2019-03-26T11:29:17.365Z,24.40
2019-03-26T11:32:03.985Z,24.40
2019-03-26T11:34:50.964Z,24.30
2019-03-26T11:37:38.393Z,24.30
2019-03-26T11:40:28.063Z,24.30
2019-03-26T11:43:14.962Z,24.30
2019-03-26T11:46:04.264Z,24.30
2019-03-26T11:48:51.243Z,24.30
2019-03-26T11:51:38.072Z,24.20
2019-03-26T11:54:25.772Z,24.20
2019-03-26T11:57:12.577Z,24.20
2019-03-26T11:59:59.108Z,24.20
2019-03-26T12:02:46.482Z,24.20
2019-03-26T12:05:33.348Z,24.10
2019-03-26T12:08:20.524Z,24.10
2019-03-26T12:11:08.383Z,24.10
2019-03-26T12:13:55.064Z,24.00
2019-03-26T12:16:43.904Z,24.00
2019-03-26T12:19:30.671Z,24.00
2019-03-26T12:22:17.708Z,24.00
2019-03-26T12:25:04.908Z,23.90
2019-03-26T12:27:52.741Z,23.90
2019-03-26T12:30:39.969Z,23.90
2019-03-26T12:33:28.980Z,23.90
2019-03-26T12:36:15.503Z,23.90
2019-03-26T12:39:06.089Z,23.90
2019-03-26T12:41:53.013Z,23.90
2019-03-26T12:44:39.775Z,23.90
2019-03-26T12:47:26.811Z,23.90
2019-03-26T12:50:13.577Z,23.90
2019-03-26T12:53:00.445Z,23.80
2019-03-26T12:55:47.642Z,23.80
2019-03-26T12:58:36.521Z,23.90
2019-03-26T13:01:25.963Z,23.80
2019-03-26T13:04:15.440Z,23.80
2019-03-26T13:07:01.285Z,23.80
2019-03-26T13:09:48.463Z,23.80
2019-03-26T13:12:34.995Z,23.80
2019-03-26T13:15:24.021Z,23.70
2019-03-26T13:18:11.460Z,23.70
2019-03-26T13:20:58.592Z,23.70
2019-03-26T13:23:45.314Z,23.70
2019-03-26T13:26:32.141Z,23.60
2019-03-26T13:29:20.143Z,23.60
2019-03-26T13:32:07.827Z,23.60
2019-03-26T13:34:54.699Z,23.60
2019-03-26T13:37:41.715Z,23.60
2019-03-26T13:40:28.938Z,23.60
2019-03-26T13:43:15.777Z,23.60
2019-03-26T13:46:02.528Z,23.50
2019-03-26T13:48:49.427Z,23.50
2019-03-26T13:51:38.048Z,23.50
2019-03-26T13:54:25.918Z,23.50
2019-03-26T13:57:12.784Z,23.50
2019-03-26T13:59:59.677Z,23.50
2019-03-26T14:02:46.756Z,23.50
2019-03-26T14:05:36.338Z,23.40
2019-03-26T14:08:24.113Z,23.40
2019-03-26T14:11:10.854Z,23.40
2019-03-26T14:13:57.739Z,23.40
2019-03-26T14:16:44.704Z,23.40
2019-03-26T14:19:31.623Z,23.40
2019-03-26T14:22:18.592Z,23.40
2019-03-26T14:25:05.962Z,23.30
2019-03-26T14:28:07.340Z,23.30
2019-03-26T14:30:53.935Z,23.20
2019-03-26T14:33:40.734Z,23.20
2019-03-26T14:36:27.467Z,23.20
2019-03-26T14:39:13.703Z,23.20
2019-03-26T14:42:00.695Z,23.20
2019-03-26T14:44:49.930Z,23.20
2019-03-26T14:47:35.584Z,23.10
2019-03-26T14:50:22.383Z,23.10
2019-03-26T14:53:09.175Z,23.00
2019-03-26T14:55:55.416Z,23.00
2019-03-26T14:58:42.252Z,23.00
2019-03-26T15:01:28.999Z,23.00
2019-03-26T15:04:16.668Z,22.90
2019-03-26T15:07:02.933Z,22.90
2019-03-26T15:09:49.852Z,22.90
2019-03-26T15:12:36.624Z,22.90
2019-03-26T15:15:23.450Z,22.80
2019-03-26T15:18:10.244Z,22.80
2019-03-26T15:20:56.989Z,22.80
2019-03-26T15:23:43.355Z,22.80
2019-03-26T15:26:30.312Z,22.70
2019-03-26T15:29:18.161Z,22.70
2019-03-26T15:32:04.984Z,22.70
2019-03-26T15:34:51.735Z,22.70
2019-03-26T15:37:38.547Z,22.70
2019-03-26T15:40:25.163Z,22.60
2019-03-26T15:43:12.065Z,22.60
2019-03-26T15:45:58.753Z,22.60
2019-03-26T15:48:45.360Z,22.60
2019-03-26T15:51:32.167Z,22.60
2019-03-26T15:54:19.128Z,22.50
2019-03-26T15:57:05.757Z,22.50
2019-03-26T15:59:52.190Z,22.50
2019-03-26T16:02:38.832Z,22.50
2019-03-26T16:05:25.715Z,22.50
2019-03-26T16:08:12.443Z,22.50
2019-03-26T16:10:58.920Z,22.40
2019-03-26T16:13:45.323Z,22.40
2019-03-26T16:16:32.320Z,22.40
2019-03-26T16:19:31.835Z,22.30
2019-03-26T16:22:07.313Z,22.30
2019-03-26T16:24:54.146Z,22.30
2019-03-26T16:27:42.085Z,22.30
2019-03-26T16:30:30.591Z,22.20
2019-03-26T16:33:20.092Z,22.20
2019-03-26T16:36:06.731Z,22.20
2019-03-26T16:38:53.656Z,22.20
2019-03-26T16:41:48.990Z,22.10
2019-03-26T16:44:29.031Z,22.10
2019-03-26T16:47:15.796Z,22.10
2019-03-26T16:50:02.628Z,22.10
2019-03-26T16:52:48.720Z,22.10
2019-03-26T16:55:35.171Z,22.10
2019-03-26T16:58:21.839Z,22.00
2019-03-26T17:01:08.500Z,22.00
2019-03-26T17:03:54.668Z,22.00
2019-03-26T17:06:42.231Z,22.00
2019-03-26T17:09:28.663Z,22.00
2019-03-26T17:12:15.543Z,22.00
2019-03-26T17:15:03.839Z,22.00
2019-03-26T17:17:51.623Z,22.00
2019-03-26T17:20:37.892Z,21.90
2019-03-26T17:23:24.195Z,21.90
2019-03-26T17:26:10.879Z,21.90
2019-03-26T17:28:57.689Z,21.90
2019-03-26T17:31:44.377Z,21.90
2019-03-26T17:34:31.109Z,21.90
2019-03-26T17:37:17.283Z,21.80
2019-03-26T17:40:04.466Z,21.80
2019-03-26T17:42:50.835Z,21.80
2019-03-26T17:45:37.743Z,21.80
2019-03-26T17:48:24.019Z,21.80
2019-03-26T17:51:10.419Z,21.70
2019-03-26T17:53:57.130Z,21.80
2019-03-26T17:56:47.136Z,21.70
2019-03-26T17:59:32.316Z,21.70
2019-03-26T18:02:18.516Z,21.70
2019-03-26T18:05:09.984Z,21.70
2019-03-26T18:07:56.948Z,21.70
2019-03-26T18:10:43.404Z,21.70
2019-03-26T18:13:30.124Z,21.70
2019-03-26T18:16:16.914Z,21.70
2019-03-26T18:19:03.747Z,21.70
2019-03-26T18:21:51.753Z,21.70
2019-03-26T18:24:38.703Z,21.60
2019-03-26T18:27:25.254Z,21.60
2019-03-26T18:30:11.972Z,21.60
2019-03-26T18:32:58.741Z,21.60
2019-03-26T18:35:45.628Z,21.60
2019-03-26T18:38:32.120Z,21.60
2019-03-26T18:41:19.590Z,21.60
2019-03-26T18:44:06.163Z,21.60
2019-03-26T18:46:52.961Z,21.60
2019-03-26T18:49:39.710Z,21.60
2019-03-26T18:52:27.552Z,21.60
2019-03-26T18:55:13.856Z,21.60
2019-03-26T18:58:00.770Z,21.60
2019-03-26T19:00:47.505Z,21.60
2019-03-26T19:03:34.275Z,21.60
2019-03-26T19:06:21.019Z,21.60
2019-03-26T19:09:07.696Z,21.60
2019-03-26T19:11:54.798Z,21.60
2019-03-26T19:14:41.503Z,21.60
2019-03-26T19:17:28.256Z,21.60
2019-03-26T19:20:14.568Z,21.60
2019-03-26T19:23:01.229Z,21.60
2019-03-26T19:25:47.840Z,21.60
2019-03-26T19:28:36.783Z,21.60
2019-03-26T19:31:23.233Z,21.60
2019-03-26T19:34:10.129Z,21.50
2019-03-26T19:36:58.489Z,21.50
2019-03-26T19:39:44.835Z,21.50
2019-03-26T19:42:31.956Z,21.50
2019-03-26T19:45:18.170Z,21.50
2019-03-26T19:48:04.965Z,21.50
2019-03-26T19:50:51.672Z,21.40
2019-03-26T19:53:38.500Z,21.40
2019-03-26T19:56:24.782Z,21.40
2019-03-26T19:59:11.507Z,21.40
2019-03-26T20:01:58.207Z,21.40
2019-03-26T20:04:44.920Z,21.40
2019-03-26T20:07:31.663Z,21.40
2019-03-26T20:10:18.466Z,21.40
2019-03-26T20:13:05.219Z,21.40
2019-03-26T20:15:52.115Z,21.40
2019-03-26T20:18:38.597Z,21.40
2019-03-26T20:21:25.376Z,21.40
2019-03-26T20:24:12.127Z,21.40
2019-03-26T20:26:58.941Z,21.40
2019-03-26T20:29:45.652Z,21.40
2019-03-26T20:32:32.522Z,21.40
2019-03-26T20:35:19.372Z,21.40
2019-03-26T20:38:06.061Z,21.40
2019-03-26T20:40:52.819Z,21.40
2019-03-26T20:43:40.903Z,21.40
2019-03-26T20:46:27.435Z,21.40
2019-03-26T20:49:13.796Z,21.40
2019-03-26T20:52:00.607Z,21.40
2019-03-26T20:54:47.336Z,21.40
2019-03-26T20:57:34.043Z,21.40
2019-03-26T21:00:33.944Z,21.40
2019-03-26T21:03:21.228Z,21.40
2019-03-26T21:06:08.495Z,21.40
2019-03-26T21:08:55.401Z,21.40
2019-03-26T21:11:42.215Z,21.40
2019-03-26T21:14:28.876Z,21.40
2019-03-26T21:17:15.687Z,21.40
2019-03-26T21:20:02.447Z,21.40
2019-03-26T21:22:49.286Z,21.40
2019-03-26T21:25:36.701Z,21.40
2019-03-26T21:28:23.769Z,21.40
2019-03-26T21:30:52.415Z,21.40
2019-03-26T21:33:48.784Z,21.40
2019-03-26T21:38:03.235Z,21.40
2019-03-26T21:40:49.423Z,21.40
2019-03-26T21:43:24.805Z,21.40
2019-03-26T21:51:12.749Z,21.40
2019-03-26T21:54:38.552Z,21.40
2019-03-26T21:57:39.727Z,21.40
2019-03-26T22:01:04.000Z,21.40
2019-03-26T22:03:54.854Z,21.40
2019-03-26T22:06:46.335Z,21.40
2019-03-26T22:09:34.839Z,21.40
2019-03-26T22:12:21.788Z,21.40
2019-03-26T22:15:00.804Z,21.40
2019-03-26T22:17:38.863Z,21.40
2019-03-26T22:20:12.642Z,21.40
2019-03-26T22:22:51.745Z,21.40
2019-03-26T22:25:26.971Z,21.40
2019-03-26T22:28:07.540Z,21.40
2019-03-26T22:30:38.003Z,21.40
2019-03-26T22:33:08.983Z,21.30
2019-03-26T22:35:42.423Z,21.40
2019-03-26T22:38:12.587Z,21.40
2019-03-26T22:40:40.939Z,21.40
2019-03-26T22:43:09.025Z,21.40
2019-03-26T22:45:56.171Z,21.40
2019-03-26T22:48:42.757Z,21.40
2019-03-26T22:51:30.014Z,21.40
2019-03-26T22:54:21.189Z,21.40
2019-03-26T22:56:49.916Z,21.40
2019-03-26T22:59:18.151Z,21.40
2019-03-26T23:01:47.165Z,21.40
2019-03-26T23:04:15.336Z,21.40
2019-03-26T23:06:43.359Z,21.50
2019-03-26T23:09:11.439Z,21.40
2019-03-26T23:11:39.855Z,21.50
2019-03-26T23:14:08.175Z,21.50
2019-03-26T23:16:36.835Z,21.50
2019-03-26T23:19:04.954Z,21.50
2019-03-26T23:21:33.008Z,21.50
2019-03-26T23:24:01.020Z,21.50
2019-03-26T23:26:29.228Z,21.50
2019-03-26T23:28:57.403Z,21.50
2019-03-26T23:31:26.023Z,21.50
2019-03-26T23:33:54.204Z,21.50
2019-03-26T23:36:22.216Z,21.50
2019-03-26T23:38:50.331Z,21.50
2019-03-26T23:41:18.749Z,21.50
2019-03-26T23:43:46.988Z,21.50
2019-03-26T23:46:15.048Z,21.50
2019-03-26T23:48:43.147Z,21.50
2019-03-26T23:51:11.267Z,21.50
2019-03-26T23:53:39.265Z,21.40
2019-03-26T23:56:08.504Z,21.50
2019-03-26T23:58:36.507Z,21.50
